Time;durP1;ratioP1;P1;durP2;ratioP2;P2;SDS_P1;SDS_P2;PMS_P1;PMS_P2;Temp;Humidity;BMP_temperature;BMP_pressure;BME280_temperature;BME280_humidity;BME280_pressure;Samples;Min_cycle;Max_cycle;Signal;HPM_P1;HPM_P2
2022/07/14 00:01:15;;;;;;;3.30;2.05;;;26.10;57.60;;;;;;5004572;28;20482;-59
2022/07/14 00:03:40;;;;;;;4.65;2.15;;;26.10;57.60;;;;;;5004053;28;20072;-58
2022/07/14 00:06:06;;;;;;;3.10;2.00;;;26.10;57.60;;;;;;5006296;28;20037;-58
2022/07/14 00:08:31;;;;;;;4.30;2.13;;;26.10;57.60;;;;;;5005515;28;20029;-58
2022/07/14 00:10:57;;;;;;;3.05;2.03;;;26.00;57.60;;;;;;5004876;28;20446;-58
2022/07/14 00:13:23;;;;;;;3.67;2.22;;;26.00;57.60;;;;;;5001519;28;20173;-59
2022/07/14 00:15:48;;;;;;;3.60;2.08;;;26.00;57.60;;;;;;5004766;28;20498;-58
2022/07/14 00:18:14;;;;;;;4.00;2.05;;;26.00;57.60;;;;;;5004034;28;20633;-58
2022/07/14 00:20:40;;;;;;;3.10;1.90;;;26.00;57.60;;;;;;5004603;28;20164;-58
2022/07/14 00:23:05;;;;;;;3.38;1.90;;;26.00;57.60;;;;;;5005589;28;20033;-58
2022/07/14 00:25:31;;;;;;;4.03;2.10;;;26.00;57.70;;;;;;5006153;28;20041;-58
2022/07/14 00:27:57;;;;;;;3.17;1.85;;;26.00;57.60;;;;;;5006310;28;20030;-58
2022/07/14 00:30:24;;;;;;;4.25;2.10;;;26.00;57.60;;;;;;5004938;28;20056;-58
2022/07/14 00:32:49;;;;;;;4.05;2.17;;;26.00;57.60;;;;;;5006633;28;20025;-58
2022/07/14 00:35:15;;;;;;;2.58;1.70;;;26.00;57.60;;;;;;5006587;28;20018;-58
2022/07/14 00:37:41;;;;;;;3.58;2.10;;;25.90;57.60;;;;;;5004704;28;20030;-59
2022/07/14 00:40:07;;;;;;;3.45;2.00;;;25.90;57.60;;;;;;5004925;28;20092;-58
2022/07/14 00:42:33;;;;;;;3.95;2.10;;;25.90;57.60;;;;;;5005110;28;20057;-58
2022/07/14 00:45:04;;;;;;;2.33;1.80;;;25.90;57.60;;;;;;5004290;28;20141;-59
2022/07/14 00:47:30;;;;;;;3.97;2.00;;;25.90;57.60;;;;;;5006206;28;20037;-58
2022/07/14 00:49:56;;;;;;;3.15;1.80;;;25.90;57.60;;;;;;5004844;28;20026;-58
2022/07/14 00:52:25;;;;;;;3.63;2.05;;;25.90;58.70;;;;;;5005972;28;20030;-58
2022/07/14 00:54:50;;;;;;;3.90;2.10;;;25.90;57.70;;;;;;5005511;28;20022;-58
2022/07/14 00:57:16;;;;;;;4.10;1.90;;;25.90;57.60;;;;;;5006581;28;20029;-58
2022/07/14 00:59:42;;;;;;;3.00;1.90;;;25.90;57.70;;;;;;5006705;28;20030;-58
2022/07/14 01:02:07;;;;;;;3.47;1.88;;;25.90;57.70;;;;;;5004337;28;20069;-58
2022/07/14 01:04:33;;;;;;;3.35;1.83;;;25.90;57.70;;;;;;5005319;28;20094;-58
2022/07/14 01:06:59;;;;;;;3.15;1.98;;;25.90;57.70;;;;;;5005084;28;20032;-58
2022/07/14 01:09:24;;;;;;;4.35;2.00;;;25.80;57.60;;;;;;5004351;28;20541;-58
2022/07/14 01:11:50;;;;;;;3.17;1.90;;;25.80;57.60;;;;;;5004605;28;20495;-58
2022/07/14 01:14:16;;;;;;;3.55;1.90;;;25.80;57.60;;;;;;5004562;28;20084;-58
2022/07/14 01:16:42;;;;;;;4.70;1.92;;;25.80;57.70;;;;;;5005041;28;20088;-58
2022/07/14 01:19:08;;;;;;;3.63;1.90;;;25.80;57.60;;;;;;5004132;28;20054;-58
2022/07/14 01:21:34;;;;;;;2.83;1.80;;;25.80;57.70;;;;;;5008751;28;20033;-59
2022/07/14 01:24:00;;;;;;;2.78;1.70;;;25.80;57.60;;;;;;5010168;28;20030;-58
2022/07/14 01:26:25;;;;;;;4.10;2.03;;;25.80;57.70;;;;;;5008707;28;20076;-59
2022/07/14 01:28:51;;;;;;;2.95;2.00;;;25.80;57.70;;;;;;5009414;28;20060;-58
2022/07/14 01:31:17;;;;;;;3.70;1.85;;;25.80;57.60;;;;;;5008203;28;20025;-58
2022/07/14 01:33:42;;;;;;;3.30;1.88;;;25.80;57.60;;;;;;5009545;28;20034;-58
2022/07/14 01:36:08;;;;;;;4.47;2.05;;;25.80;57.60;;;;;;5009895;28;20104;-58
2022/07/14 01:38:33;;;;;;;3.97;1.95;;;25.80;57.70;;;;;;5008859;28;20423;-58
2022/07/14 01:40:59;;;;;;;4.22;2.03;;;25.80;57.70;;;;;;5009357;28;20059;-58
2022/07/14 01:43:25;;;;;;;3.92;1.92;;;25.80;57.70;;;;;;5007443;28;20442;-59
2022/07/14 01:45:50;;;;;;;3.00;1.70;;;25.70;57.60;;;;;;5009051;28;20580;-58
2022/07/14 01:48:16;;;;;;;2.72;1.73;;;25.70;57.60;;;;;;5010242;28;20483;-58
2022/07/14 01:50:42;;;;;;;4.38;1.90;;;25.70;57.60;;;;;;5010587;28;20030;-59
2022/07/14 01:53:07;;;;;;;3.30;1.80;;;25.70;57.60;;;;;;5008002;28;20034;-59
2022/07/14 01:55:34;;;;;;;3.28;1.90;;;25.70;57.60;;;;;;5007793;28;20609;-58
2022/07/14 01:57:59;;;;;;;5.55;1.90;;;25.70;57.60;;;;;;5008221;28;20030;-58
2022/07/14 02:00:25;;;;;;;6.30;2.00;;;25.70;57.60;;;;;;5007543;28;20087;-58
2022/07/14 02:02:51;;;;;;;4.88;1.90;;;25.70;57.60;;;;;;5009791;28;20032;-58
2022/07/14 02:05:16;;;;;;;3.33;1.90;;;25.70;57.60;;;;;;5009235;28;20034;-58
2022/07/14 02:07:42;;;;;;;4.82;1.85;;;25.70;57.60;;;;;;5006596;28;20026;-58
2022/07/14 02:12:52;;;;;;;3.55;1.70;;;25.70;57.60;;;;;;5008087;28;20061;-58
2022/07/14 02:15:18;;;;;;;4.30;2.00;;;25.70;57.60;;;;;;5007765;28;20076;-63
2022/07/14 02:17:44;;;;;;;4.35;1.80;;;25.70;57.60;;;;;;5008338;28;20038;-58
2022/07/14 02:20:10;;;;;;;2.83;1.83;;;25.60;57.60;;;;;;5007651;28;20142;-58
2022/07/14 02:22:36;;;;;;;4.53;1.90;;;25.60;57.50;;;;;;5006628;28;20057;-58
2022/07/14 02:25:02;;;;;;;3.65;1.80;;;25.60;57.60;;;;;;5009605;28;20049;-58
2022/07/14 02:27:28;;;;;;;4.05;1.88;;;25.60;57.50;;;;;;5007250;28;20033;-58
2022/07/14 02:29:53;;;;;;;3.30;1.73;;;25.60;58.00;;;;;;5008411;28;20034;-58
2022/07/14 02:32:19;;;;;;;4.10;2.00;;;25.60;57.60;;;;;;5003612;28;20552;-58
2022/07/14 02:34:45;;;;;;;3.25;1.80;;;25.60;57.60;;;;;;5008480;28;20557;-58
2022/07/14 02:37:10;;;;;;;3.42;1.95;;;25.60;57.60;;;;;;5008748;28;20154;-58
2022/07/14 02:39:36;;;;;;;4.10;2.05;;;25.60;57.50;;;;;;5008399;28;20482;-58
2022/07/14 02:42:02;;;;;;;3.50;1.90;;;25.60;57.50;;;;;;5006065;28;20037;-59
2022/07/14 02:44:28;;;;;;;4.03;2.00;;;25.60;57.50;;;;;;5008882;28;20100;-58
2022/07/14 02:46:53;;;;;;;3.67;1.90;;;25.60;57.50;;;;;;5007338;28;20495;-58
2022/07/14 02:49:19;;;;;;;3.33;1.73;;;25.60;57.50;;;;;;5008416;28;20029;-58
2022/07/14 02:51:44;;;;;;;3.72;1.90;;;25.60;57.50;;;;;;5006184;28;20033;-58
2022/07/14 02:54:10;;;;;;;4.80;1.77;;;25.50;57.50;;;;;;5007425;28;20474;-58
2022/07/14 02:56:36;;;;;;;3.95;2.00;;;25.50;57.50;;;;;;5006282;28;20032;-58
2022/07/14 02:59:05;;;;;;;3.28;1.65;;;25.60;57.60;;;;;;5008892;28;20038;-58
2022/07/14 03:01:31;;;;;;;3.88;1.70;;;25.50;57.50;;;;;;5006260;28;20105;-58
2022/07/14 03:03:57;;;;;;;3.95;1.80;;;25.60;57.50;;;;;;5006420;28;20105;-58
2022/07/14 03:06:22;;;;;;;4.15;1.67;;;25.50;57.50;;;;;;5006369;28;20076;-58
2022/07/14 03:08:48;;;;;;;3.53;1.85;;;25.50;57.50;;;;;;5008786;28;20029;-58
2022/07/14 03:11:14;;;;;;;3.45;1.80;;;25.50;57.50;;;;;;5006295;28;20478;-58
2022/07/14 03:13:40;;;;;;;3.85;1.88;;;25.50;57.50;;;;;;5007834;28;20411;-58
2022/07/14 03:16:08;;;;;;;3.90;1.83;;;25.50;57.50;;;;;;5006527;28;20084;-58
2022/07/14 03:18:34;;;;;;;2.25;1.50;;;25.50;57.50;;;;;;5003444;28;20040;-58
2022/07/14 03:20:59;;;;;;;3.80;1.80;;;25.50;57.50;;;;;;5006116;28;20494;-58
2022/07/14 03:23:25;;;;;;;2.88;1.60;;;25.50;57.60;;;;;;5005987;28;20125;-58
2022/07/14 03:25:51;;;;;;;2.72;1.50;;;25.50;57.50;;;;;;5006018;28;20038;-58
2022/07/14 03:28:17;;;;;;;3.20;1.60;;;25.40;57.50;;;;;;5008704;28;20092;-58
2022/07/14 03:30:42;;;;;;;3.42;1.83;;;25.40;57.50;;;;;;5006096;28;20388;-58
2022/07/14 03:33:08;;;;;;;4.55;1.80;;;25.40;57.50;;;;;;5008159;28;20052;-58
2022/07/14 03:35:39;;;;;;;3.83;1.90;;;25.40;57.50;;;;;;5006787;28;20080;-58
2022/07/14 03:38:05;;;;;;;3.95;2.00;;;25.40;57.50;;;;;;5004552;28;21645;-58
2022/07/14 03:40:31;;;;;;;3.65;1.60;;;25.40;57.50;;;;;;5006248;28;20034;-58
2022/07/14 03:42:57;;;;;;;3.90;1.85;;;25.40;57.50;;;;;;5005628;28;20481;-58
2022/07/14 03:45:22;;;;;;;3.42;1.67;;;25.40;57.50;;;;;;5007877;28;20418;-58
2022/07/14 03:47:48;;;;;;;3.03;1.70;;;25.40;57.50;;;;;;5008112;28;20555;-58
2022/07/14 03:50:14;;;;;;;3.80;1.70;;;25.40;57.50;;;;;;5006387;28;20530;-58
2022/07/14 03:52:40;;;;;;;3.13;1.70;;;25.40;57.50;;;;;;5003443;28;20026;-59
2022/07/14 03:55:06;;;;;;;3.60;1.80;;;25.40;57.50;;;;;;5006454;28;20069;-58
2022/07/14 03:57:31;;;;;;;3.03;1.70;;;25.40;57.50;;;;;;5007392;28;20022;-58
2022/07/14 03:59:57;;;;;;;4.35;1.70;;;25.40;57.50;;;;;;5007873;28;20038;-58
2022/07/14 04:02:22;;;;;;;4.47;1.90;;;25.40;57.50;;;;;;5007587;28;20025;-58
2022/07/14 04:04:48;;;;;;;4.22;1.75;;;25.40;57.50;;;;;;5006430;28;20025;-58
2022/07/14 04:07:14;;;;;;;3.25;1.77;;;25.30;57.40;;;;;;5007261;28;20113;-58
2022/07/14 04:09:39;;;;;;;4.50;2.20;;;25.30;57.40;;;;;;5005782;28;20694;-58
2022/07/14 04:12:05;;;;;;;3.90;1.80;;;25.30;57.50;;;;;;5007558;28;20457;-58
2022/07/14 04:14:31;;;;;;;4.30;2.05;;;25.30;57.50;;;;;;5008264;28;20018;-58
2022/07/14 04:16:57;;;;;;;2.85;1.70;;;25.30;57.40;;;;;;5006020;28;20026;-58
2022/07/14 04:19:22;;;;;;;3.90;1.70;;;25.30;57.50;;;;;;5006669;28;20088;-58
2022/07/14 04:21:48;;;;;;;4.65;1.80;;;25.30;57.40;;;;;;5004059;28;20041;-58
2022/07/14 04:24:14;;;;;;;3.95;1.70;;;25.30;57.50;;;;;;5021824;28;20026;-58
2022/07/14 04:26:40;;;;;;;4.85;1.80;;;25.30;58.50;;;;;;5021942;28;20121;-58
2022/07/14 04:29:06;;;;;;;4.88;2.00;;;25.20;57.40;;;;;;5007648;28;20030;-58
2022/07/14 04:31:33;;;;;;;6.00;2.17;;;25.30;57.50;;;;;;5006595;28;20068;-58
2022/07/14 04:33:58;;;;;;;3.35;1.80;;;25.20;57.30;;;;;;5004606;28;20049;-58
2022/07/14 04:36:24;;;;;;;4.22;1.80;;;25.20;57.30;;;;;;5006430;28;20072;-58
2022/07/14 04:38:50;;;;;;;3.78;1.67;;;25.20;57.40;;;;;;5007418;28;20034;-58
2022/07/14 04:41:15;;;;;;;4.07;1.60;;;25.20;57.40;;;;;;5005743;28;20026;-58
2022/07/14 04:43:41;;;;;;;3.78;1.70;;;25.20;57.40;;;;;;5004223;28;20082;-58
2022/07/14 04:46:08;;;;;;;4.85;1.90;;;25.20;57.40;;;;;;5003852;28;20064;-58
2022/07/14 04:52:01;;;;;;;3.35;1.63;;;25.20;57.40;;;;;;5005011;28;20141;-58
2022/07/14 04:54:03;;;;;;;5.57;1.70;;;25.20;57.40;;;;;;5006419;28;20521;-58
2022/07/14 04:56:29;;;;;;;4.50;1.60;;;25.20;57.40;;;;;;5004630;28;20034;-58
2022/07/14 04:58:55;;;;;;;3.55;1.63;;;25.20;57.40;;;;;;5006186;28;20513;-58
2022/07/14 05:01:20;;;;;;;2.88;1.45;;;25.20;57.40;;;;;;5006355;28;20030;-58
2022/07/14 05:03:47;;;;;;;3.40;1.80;;;25.20;57.30;;;;;;5006084;28;20037;-58
2022/07/14 05:06:12;;;;;;;3.45;1.85;;;25.20;57.30;;;;;;5004995;28;20038;-58
2022/07/14 05:08:38;;;;;;;3.40;1.60;;;25.20;57.30;;;;;;5004670;28;20045;-58
2022/07/14 05:11:04;;;;;;;3.17;1.60;;;25.10;57.30;;;;;;5006441;28;20182;-58
2022/07/14 05:13:30;;;;;;;4.35;1.70;;;25.20;57.30;;;;;;5005768;28;20049;-58
2022/07/14 05:15:55;;;;;;;6.70;1.88;;;25.10;57.30;;;;;;5002877;28;20061;-58
2022/07/14 05:18:21;;;;;;;3.88;1.75;;;25.10;57.20;;;;;;5005105;28;20124;-58
2022/07/14 05:20:47;;;;;;;3.35;1.60;;;25.10;57.30;;;;;;5004898;28;20042;-58
2022/07/14 05:23:12;;;;;;;3.05;1.65;;;25.10;57.20;;;;;;5006567;28;20026;-58
2022/07/14 05:25:39;;;;;;;3.67;1.73;;;25.10;57.30;;;;;;5003850;28;20053;-58
2022/07/14 05:28:05;;;;;;;3.15;1.60;;;25.10;57.30;;;;;;5004204;28;20042;-59
2022/07/14 05:30:31;;;;;;;3.33;1.70;;;25.10;57.30;;;;;;5003982;28;20030;-58
2022/07/14 05:32:57;;;;;;;4.38;1.55;;;25.10;57.30;;;;;;5006013;28;20401;-58
2022/07/14 05:35:23;;;;;;;3.13;1.52;;;25.10;57.30;;;;;;5005310;28;20492;-58
2022/07/14 05:37:48;;;;;;;3.30;1.50;;;25.10;57.30;;;;;;5004512;28;20054;-58
2022/07/14 05:40:14;;;;;;;4.05;1.70;;;25.10;57.30;;;;;;5004638;28;20030;-58
2022/07/14 05:42:40;;;;;;;3.35;1.60;;;25.00;57.30;;;;;;5004663;28;20033;-58
2022/07/14 05:45:06;;;;;;;3.10;1.55;;;25.10;58.30;;;;;;5002095;28;20049;-58
2022/07/14 05:47:32;;;;;;;5.07;1.70;;;25.00;57.30;;;;;;5004610;28;20092;-58
2022/07/14 05:49:57;;;;;;;2.95;1.60;;;25.00;57.30;;;;;;5004106;28;20030;-58
2022/07/14 05:52:23;;;;;;;3.95;1.42;;;25.00;57.30;;;;;;5004967;28;20112;-58
2022/07/14 05:54:49;;;;;;;3.58;1.58;;;25.00;57.30;;;;;;5004730;28;20608;-58
2022/07/14 05:57:15;;;;;;;1.85;1.40;;;25.00;57.20;;;;;;5004013;28;20061;-58
2022/07/14 05:59:40;;;;;;;3.47;1.60;;;25.00;57.20;;;;;;5004501;28;20413;-58
2022/07/14 06:02:06;;;;;;;3.25;1.65;;;25.00;57.30;;;;;;5005695;28;20038;-58
2022/07/14 06:04:32;;;;;;;2.63;1.70;;;25.00;57.30;;;;;;5004619;28;20053;-58
2022/07/14 06:06:57;;;;;;;3.47;1.50;;;25.00;57.20;;;;;;5005839;28;20068;-58
2022/07/14 06:09:23;;;;;;;4.28;1.70;;;25.00;57.20;;;;;;5007566;28;20472;-58
2022/07/14 06:11:49;;;;;;;3.05;1.60;;;25.00;57.20;;;;;;5007156;28;20030;-58
2022/07/14 06:14:15;;;;;;;4.25;1.52;;;25.00;57.30;;;;;;5005796;28;20080;-58
2022/07/14 06:16:41;;;;;;;2.95;1.48;;;25.00;57.20;;;;;;5008033;28;20099;-58
2022/07/14 06:19:06;;;;;;;4.32;1.80;;;24.90;57.20;;;;;;5006779;28;20050;-58
2022/07/14 06:21:32;;;;;;;2.78;1.50;;;25.00;57.20;;;;;;5008031;28;20518;-58
2022/07/14 06:23:58;;;;;;;4.47;2.00;;;24.90;57.20;;;;;;5008390;28;20029;-58
2022/07/14 06:26:23;;;;;;;3.15;1.45;;;25.00;57.20;;;;;;5007030;28;20038;-58
2022/07/14 06:28:49;;;;;;;3.67;1.70;;;25.00;57.30;;;;;;5007154;28;20022;-58
2022/07/14 06:31:15;;;;;;;1.92;1.40;;;25.00;57.30;;;;;;5008507;28;20588;-58
2022/07/14 06:33:40;;;;;;;3.72;1.70;;;24.90;57.20;;;;;;5007653;28;20375;-58
2022/07/14 06:36:08;;;;;;;3.65;1.60;;;24.90;57.20;;;;;;5007783;28;20061;-58
2022/07/14 06:38:34;;;;;;;3.35;1.50;;;25.00;57.30;;;;;;5008640;28;20018;-58
2022/07/14 06:41:00;;;;;;;3.60;1.60;;;24.90;57.20;;;;;;5008761;28;20038;-58
2022/07/14 06:43:25;;;;;;;3.95;1.60;;;24.90;57.30;;;;;;5009856;28;22083;-58
2022/07/14 06:45:51;;;;;;;3.67;1.50;;;24.90;57.30;;;;;;5009460;28;20045;-58
2022/07/14 06:48:17;;;;;;;4.15;1.48;;;24.90;57.30;;;;;;5005116;28;20034;-58
2022/07/14 06:50:43;;;;;;;3.53;1.70;;;24.90;57.30;;;;;;5006088;28;20660;-58
2022/07/14 06:53:09;;;;;;;4.53;1.65;;;24.90;57.30;;;;;;5008394;28;20152;-58
2022/07/14 06:55:34;;;;;;;2.85;1.58;;;24.90;57.30;;;;;;5008286;28;20056;-58
2022/07/14 06:58:00;;;;;;;4.47;1.60;;;24.90;57.30;;;;;;5008510;28;20022;-58
2022/07/14 07:00:26;;;;;;;3.45;1.60;;;24.90;57.30;;;;;;5008591;28;20030;-58
2022/07/14 07:02:52;;;;;;;6.20;1.60;;;24.90;57.30;;;;;;5006928;28;20026;-58
2022/07/14 07:08:02;;;;;;;2.88;1.45;;;24.90;57.30;;;;;;5007306;28;20088;-58
2022/07/14 07:10:27;;;;;;;2.60;1.55;;;24.90;57.30;;;;;;5008242;28;20053;-58
2022/07/14 07:12:53;;;;;;;2.30;1.42;;;24.90;57.20;;;;;;5007969;28;20064;-58
2022/07/14 07:15:20;;;;;;;3.97;1.52;;;24.90;57.30;;;;;;5008282;28;20040;-58
2022/07/14 07:17:45;;;;;;;3.83;1.70;;;24.90;57.30;;;;;;5005267;28;20115;-58
2022/07/14 07:20:11;;;;;;;3.47;1.58;;;24.90;57.30;;;;;;5007518;28;20069;-58
2022/07/14 07:22:37;;;;;;;3.83;1.50;;;24.90;57.30;;;;;;5007965;28;20026;-58
2022/07/14 07:25:06;;;;;;;3.45;1.45;;;24.90;57.30;;;;;;5006734;28;20140;-58
2022/07/14 07:27:32;;;;;;;3.05;1.40;;;24.90;57.30;;;;;;5007553;28;20022;-58
2022/07/14 07:29:59;;;;;;;2.75;1.40;;;24.90;57.20;;;;;;5004932;28;20026;-58
2022/07/14 07:32:25;;;;;;;4.15;1.50;;;24.90;57.20;;;;;;5022477;28;20152;-58
2022/07/14 07:34:51;;;;;;;2.47;1.50;;;24.90;57.30;;;;;;5006690;28;20025;-58
2022/07/14 07:37:17;;;;;;;3.28;1.40;;;24.90;57.30;;;;;;5005573;28;20040;-58
2022/07/14 07:39:42;;;;;;;3.22;1.52;;;24.90;57.20;;;;;;5005708;28;20038;-58
2022/07/14 07:42:08;;;;;;;3.70;1.30;;;24.90;57.20;;;;;;5005254;28;20038;-58
2022/07/14 07:44:34;;;;;;;4.53;1.50;;;24.90;57.30;;;;;;5008168;28;20100;-58
2022/07/14 07:47:00;;;;;;;2.72;1.40;;;24.90;57.30;;;;;;5003711;28;20134;-58
2022/07/14 07:49:26;;;;;;;3.45;1.60;;;24.90;57.30;;;;;;5004745;28;20706;-58
2022/07/14 07:51:59;;;;;;;3.88;1.50;;;24.90;57.20;;;;;;5007015;28;20139;-58
2022/07/14 07:54:26;;;;;;;2.70;1.50;;;24.90;57.30;;;;;;5006323;28;20100;-58
2022/07/14 07:56:52;;;;;;;4.25;1.60;;;24.90;57.20;;;;;;5007608;28;20036;-58
2022/07/14 07:59:18;;;;;;;2.47;1.45;;;24.90;57.20;;;;;;5005204;28;20109;-58
2022/07/14 08:01:44;;;;;;;2.85;1.58;;;24.90;57.20;;;;;;5004601;28;20029;-58
2022/07/14 08:04:09;;;;;;;3.72;1.70;;;24.90;57.20;;;;;;5007077;28;20022;-58
2022/07/14 08:06:35;;;;;;;4.38;1.50;;;24.90;57.20;;;;;;5005800;28;20038;-58
2022/07/14 08:09:01;;;;;;;4.20;1.65;;;24.90;57.20;;;;;;5003528;28;20124;-58
2022/07/14 08:11:27;;;;;;;3.10;1.40;;;24.90;57.10;;;;;;5007409;28;20033;-58
2022/07/14 08:13:53;;;;;;;3.25;1.58;;;24.90;57.10;;;;;;5004651;28;20038;-58
2022/07/14 08:16:19;;;;;;;2.63;1.40;;;24.90;57.30;;;;;;5006845;28;20449;-58
2022/07/14 08:18:45;;;;;;;3.83;1.60;;;24.90;57.30;;;;;;5006443;28;20119;-58
2022/07/14 08:21:11;;;;;;;4.28;1.60;;;24.90;57.20;;;;;;5005948;28;20647;-58
2022/07/14 08:23:36;;;;;;;3.42;1.45;;;24.90;57.10;;;;;;5005636;28;20030;-58
2022/07/14 08:26:02;;;;;;;4.25;1.70;;;24.90;57.00;;;;;;5007609;28;20045;-58
2022/07/14 08:28:28;;;;;;;3.83;1.40;;;24.90;57.00;;;;;;5003672;28;20034;-58
2022/07/14 08:30:53;;;;;;;4.60;1.60;;;24.90;57.00;;;;;;5005824;28;20434;-58
2022/07/14 08:33:19;;;;;;;4.35;1.70;;;24.90;56.90;;;;;;5003623;28;20564;-58
2022/07/14 08:35:47;;;;;;;5.07;1.85;;;25.00;56.90;;;;;;5005610;28;20030;-58
2022/07/14 08:38:13;;;;;;;2.63;1.40;;;24.90;56.90;;;;;;5005992;28;20026;-58
2022/07/14 08:40:38;;;;;;;6.22;1.63;;;24.90;56.90;;;;;;5005209;28;20033;-58
2022/07/14 08:43:04;;;;;;;3.38;1.55;;;25.00;56.90;;;;;;5005588;28;20022;-58
2022/07/14 08:45:30;;;;;;;3.63;1.40;;;24.90;57.00;;;;;;5005591;28;20510;-58
2022/07/14 08:47:55;;;;;;;3.38;1.40;;;24.90;56.90;;;;;;5003528;28;20487;-58
2022/07/14 08:50:23;;;;;;;3.65;1.50;;;25.00;57.00;;;;;;5005538;28;20046;-58
2022/07/14 08:52:49;;;;;;;4.75;1.65;;;25.00;56.90;;;;;;5006756;28;20053;-58
2022/07/14 08:55:15;;;;;;;4.95;1.63;;;25.00;56.90;;;;;;5006373;28;20026;-58
2022/07/14 08:57:41;;;;;;;4.82;1.55;;;25.00;56.90;;;;;;5005269;28;20110;-58
2022/07/14 09:00:11;;;;;;;4.25;1.63;;;25.00;56.90;;;;;;5006385;28;20108;-58
2022/07/14 09:02:37;;;;;;;3.92;1.40;;;25.00;56.90;;;;;;5003695;28;20022;-58
2022/07/14 09:05:03;;;;;;;3.75;1.60;;;25.00;57.00;;;;;;5004371;28;20056;-58
2022/07/14 09:07:31;;;;;;;3.70;1.50;;;25.00;56.90;;;;;;5006765;28;20118;-58
2022/07/14 09:10:09;;;;;;;4.22;1.58;;;25.00;56.80;;;;;;5005305;28;20022;-58
2022/07/14 09:12:35;;;;;;;5.30;2.00;;;25.00;56.80;;;;;;5003224;28;20038;-58
2022/07/14 09:17:53;;;;;;;4.10;1.48;;;25.00;56.80;;;;;;5006485;28;20040;-58
2022/07/14 09:20:19;;;;;;;4.78;1.65;;;25.00;56.70;;;;;;5005604;28;20502;-58
2022/07/14 09:22:45;;;;;;;3.60;1.40;;;25.00;56.80;;;;;;5005421;28;20122;-58
2022/07/14 09:25:16;;;;;;;4.63;1.70;;;25.10;56.80;;;;;;5003605;28;20121;-59
2022/07/14 09:27:45;;;;;;;5.05;1.50;;;25.00;56.70;;;;;;5005464;28;20036;-58
2022/07/14 09:30:11;;;;;;;6.60;1.70;;;25.00;55.50;;;;;;5005250;28;20030;-58
2022/07/14 09:32:57;;;;;;;9.30;1.77;;;24.90;54.20;;;;;;5003436;28;20037;-58
2022/07/14 09:35:29;;;;;;;8.38;1.77;;;24.90;54.30;;;;;;5003194;28;20040;-58
2022/07/14 09:37:56;;;;;;;7.60;2.10;;;24.80;54.10;;;;;;5002833;28;20415;-59
2022/07/14 09:40:28;;;;;;;7.05;2.03;;;24.80;53.70;;;;;;5003165;28;20033;-58
2022/07/14 09:43:01;;;;;;;9.07;1.90;;;24.80;53.50;;;;;;5005361;28;22256;-58
2022/07/14 09:45:47;;;;;;;7.45;1.92;;;24.80;53.50;;;;;;5006014;28;20038;-58
2022/07/14 09:48:13;;;;;;;7.10;1.83;;;24.80;54.40;;;;;;5007839;28;20052;-58
2022/07/14 09:50:42;;;;;;;8.30;1.77;;;24.80;55.00;;;;;;5004865;28;20037;-58
2022/07/14 09:53:24;;;;;;;6.97;1.75;;;24.90;55.00;;;;;;5006950;28;20109;-58
2022/07/14 09:56:00;;;;;;;8.15;1.85;;;24.80;53.70;;;;;;5007209;28;20034;-58
2022/07/14 09:58:51;;;;;;;9.60;1.95;;;24.80;53.50;;;;;;5004718;28;20054;-58
2022/07/14 10:01:18;;;;;;;8.07;1.90;;;24.70;53.10;;;;;;5005716;28;20030;-58
2022/07/14 10:03:52;;;;;;;7.53;1.80;;;24.70;52.80;;;;;;5004106;28;20029;-58
2022/07/14 10:06:18;;;;;;;7.78;1.90;;;24.60;53.00;;;;;;4989345;28;20616;-58
2022/07/14 10:08:46;;;;;;;10.30;1.95;;;24.70;53.00;;;;;;4989083;28;20035;-57
2022/07/14 10:11:12;;;;;;;10.23;1.90;;;24.70;52.90;;;;;;5002602;28;20018;-58
2022/07/14 10:13:38;;;;;;;11.35;1.80;;;24.70;52.90;;;;;;5020653;28;20112;-58
2022/07/14 10:16:05;;;;;;;10.75;1.88;;;24.60;52.70;;;;;;5005480;28;20072;-58
2022/07/14 10:18:30;;;;;;;6.10;1.63;;;24.60;52.10;;;;;;5006273;28;20033;-59
2022/07/14 10:20:57;;;;;;;8.10;2.03;;;24.60;52.30;;;;;;5021958;28;20045;-58
2022/07/14 10:23:25;;;;;;;7.20;1.70;;;24.60;52.00;;;;;;5005323;28;20022;-58
2022/07/14 10:25:54;;;;;;;7.43;1.75;;;24.60;51.70;;;;;;5005370;28;20050;-58
2022/07/14 10:28:22;;;;;;;11.18;2.10;;;24.60;51.80;;;;;;5006926;28;20034;-58
2022/07/14 10:31:00;;;;;;;9.18;1.85;;;24.60;52.00;;;;;;5017121;28;20092;-58
2022/07/14 10:33:44;;;;;;;8.20;1.88;;;24.60;52.30;;;;;;5003921;28;20028;-58
2022/07/14 10:36:18;;;;;;;8.88;1.85;;;24.60;52.50;;;;;;5004703;28;20118;-58
2022/07/14 10:38:58;;;;;;;12.48;2.20;;;24.70;52.00;;;;;;5004920;28;20034;-58
2022/07/14 10:41:30;;;;;;;8.80;1.80;;;24.70;51.80;;;;;;5003979;28;20040;-57
2022/07/14 10:44:06;;;;;;;10.57;2.25;;;24.70;51.90;;;;;;5007217;28;20519;-57
2022/07/14 10:46:40;;;;;;;3.95;1.50;;;24.80;52.00;;;;;;5008292;28;20037;-57
2022/07/14 10:49:07;;;;;;;7.90;1.70;;;24.80;52.30;;;;;;5006314;28;20053;-57
2022/07/14 10:51:33;;;;;;;9.23;1.80;;;24.90;52.40;;;;;;5007185;28;20057;-57
2022/07/14 10:54:12;;;;;;;6.75;1.80;;;25.00;52.30;;;;;;5006813;28;20495;-57
2022/07/14 10:56:42;;;;;;;8.05;2.13;;;25.00;52.30;;;;;;5005671;28;20038;-57
2022/07/14 10:59:26;;;;;;;5.30;1.52;;;25.00;52.30;;;;;;5007031;28;20030;-57
2022/07/14 11:02:10;;;;;;;10.25;2.00;;;25.00;52.30;;;;;;5007426;28;20030;-57
2022/07/14 11:05:01;;;;;;;8.90;1.85;;;25.10;52.40;;;;;;5006099;28;20068;-57
2022/07/14 11:07:52;;;;;;;7.90;2.03;;;25.10;52.40;;;;;;5007321;28;20026;-57
2022/07/14 11:10:21;;;;;;;8.57;1.73;;;25.10;52.40;;;;;;5021218;28;20038;-57
2022/07/14 11:13:04;;;;;;;6.35;1.95;;;25.20;52.60;;;;;;5006506;28;20049;-58
2022/07/14 11:15:53;;;;;;;7.55;1.73;;;25.20;52.70;;;;;;5008366;28;20061;-57
2022/07/14 11:18:18;;;;;;;6.00;1.85;;;25.20;52.70;;;;;;5006624;28;20040;-58
2022/07/14 11:21:01;;;;;;;4.85;1.50;;;25.20;52.70;;;;;;5005977;28;20101;-57
2022/07/14 11:23:29;;;;;;;5.25;1.50;;;25.20;52.80;;;;;;5007804;28;20640;-57
2022/07/14 11:25:55;;;;;;;8.20;1.83;;;25.20;52.80;;;;;;5005352;28;20120;-57
2022/07/14 11:28:33;;;;;;;5.25;1.70;;;25.20;52.80;;;;;;5006280;28;20032;-57
2022/07/14 11:31:19;;;;;;;6.57;1.55;;;25.30;53.00;;;;;;5005236;28;20175;-57
2022/07/14 11:36:33;;;;;;;7.18;1.73;;;25.30;53.00;;;;;;5006509;28;20700;-57
2022/07/14 11:39:18;;;;;;;6.03;1.60;;;25.40;53.10;;;;;;5005997;28;20101;-57
2022/07/14 11:41:48;;;;;;;8.15;1.70;;;25.40;53.10;;;;;;5003286;28;20410;-57
2022/07/14 11:44:35;;;;;;;6.60;1.52;;;25.40;53.10;;;;;;5006028;28;20036;-57
2022/07/14 11:47:02;;;;;;;6.65;1.63;;;25.40;53.20;;;;;;5003554;28;20041;-57
2022/07/14 11:49:27;;;;;;;5.72;1.40;;;25.40;53.20;;;;;;5005351;28;20028;-58
2022/07/14 11:51:54;;;;;;;6.40;1.60;;;25.40;53.20;;;;;;5002462;28;20029;-57
2022/07/14 11:54:20;;;;;;;5.85;1.60;;;25.40;53.20;;;;;;5003708;28;20470;-57
2022/07/14 11:56:46;;;;;;;5.18;1.58;;;25.40;53.20;;;;;;5002354;28;20015;-58
2022/07/14 11:59:16;;;;;;;4.57;1.63;;;25.40;53.20;;;;;;5003568;28;20059;-57
2022/07/14 12:01:44;;;;;;;4.40;1.60;;;25.40;53.30;;;;;;5002615;28;20045;-57
2022/07/14 12:04:17;;;;;;;4.90;1.65;;;25.50;53.30;;;;;;5005049;28;20041;-58
2022/07/14 12:06:44;;;;;;;5.50;1.48;;;25.50;53.30;;;;;;5005052;28;20050;-57
2022/07/14 12:09:10;;;;;;;6.32;1.67;;;25.50;53.30;;;;;;5006062;28;20088;-57
2022/07/14 12:11:36;;;;;;;6.18;1.63;;;25.50;53.30;;;;;;5007427;28;20490;-57
2022/07/14 12:14:03;;;;;;;4.65;1.63;;;25.50;53.20;;;;;;5020435;28;20554;-57
2022/07/14 12:16:28;;;;;;;5.60;1.65;;;25.50;53.20;;;;;;5006895;28;20042;-57
2022/07/14 12:18:54;;;;;;;5.97;1.60;;;25.60;53.20;;;;;;5005903;28;20124;-57
2022/07/14 12:21:35;;;;;;;6.25;1.70;;;25.60;53.30;;;;;;5005453;28;20037;-57
2022/07/14 12:24:01;;;;;;;4.80;1.65;;;25.60;53.20;;;;;;5005192;28;20028;-57
2022/07/14 12:26:27;;;;;;;4.10;1.67;;;25.60;53.20;;;;;;5006035;28;20045;-57
2022/07/14 12:28:57;;;;;;;5.10;1.65;;;25.60;53.10;;;;;;5004962;28;20056;-57
2022/07/14 12:31:23;;;;;;;4.25;1.48;;;25.60;53.10;;;;;;5005145;28;20022;-57
2022/07/14 12:33:50;;;;;;;5.22;1.55;;;25.60;53.00;;;;;;5004174;28;20132;-57
2022/07/14 12:36:17;;;;;;;5.10;1.80;;;25.60;53.00;;;;;;5005586;28;20040;-57
2022/07/14 12:38:43;;;;;;;5.70;1.70;;;25.70;53.00;;;;;;4999826;28;20109;-58
2022/07/14 12:41:09;;;;;;;5.80;1.70;;;25.60;52.90;;;;;;5020432;28;20120;-57
2022/07/14 12:43:36;;;;;;;5.60;1.60;;;25.70;52.90;;;;;;5022068;28;20026;-57
2022/07/14 12:46:05;;;;;;;4.72;1.52;;;25.70;52.90;;;;;;5007219;28;20037;-57
2022/07/14 12:48:36;;;;;;;4.60;1.63;;;25.70;52.90;;;;;;5006385;28;20030;-57
2022/07/14 12:51:30;;;;;;;5.20;1.67;;;25.70;52.80;;;;;;5004861;28;20058;-57
2022/07/14 12:54:10;;;;;;;6.53;1.63;;;25.70;52.80;;;;;;5000551;28;20099;-57
2022/07/14 12:56:43;;;;;;;5.82;1.65;;;25.70;52.90;;;;;;5003044;28;20038;-57
2022/07/14 12:59:13;;;;;;;5.18;1.75;;;25.60;50.70;;;;;;5002776;28;20564;-58
2022/07/14 13:02:00;;;;;;;5.18;1.55;;;25.60;50.00;;;;;;5002791;28;20065;-57